Time;durP1;ratioP1;P1;durP2;ratioP2;P2;SDS_P1;SDS_P2;PMS_P1;PMS_P2;Temp;Humidity;BMP_temperature;BMP_pressure;BME280_temperature;BME280_humidity;BME280_pressure;Samples;Min_cycle;Max_cycle;Signal;HPM_P1;HPM_P2
2023/03/23 00:00:25;;;;;;;12.20;5.37;;;25.00;76.60;;;;;;4991889;28;20605;-67
2023/03/23 00:02:52;;;;;;;13.60;5.40;;;25.00;76.30;;;;;;4987271;28;20178;-67
2023/03/23 00:05:19;;;;;;;12.60;5.60;;;25.00;76.80;;;;;;4996082;28;20231;-74
2023/03/23 00:07:52;;;;;;;13.27;6.70;;;25.10;75.30;;;;;;4990316;28;20664;-75
2023/03/23 00:10:19;;;;;;;20.13;7.57;;;25.20;75.10;;;;;;4990340;28;20229;-74
2023/03/23 00:12:49;;;;;;;15.23;6.83;;;25.30;74.40;;;;;;4981146;28;20179;-73
2023/03/23 00:15:17;;;;;;;16.97;7.27;;;25.40;74.50;;;;;;4974936;28;20214;-69
2023/03/23 00:17:44;;;;;;;12.60;6.33;;;25.60;73.80;;;;;;4988635;28;20199;-71
2023/03/23 00:20:12;;;;;;;15.17;5.73;;;25.70;72.90;;;;;;5007203;28;20182;-71
2023/03/23 00:22:40;;;;;;;11.93;6.63;;;25.50;72.10;;;;;;4993475;28;20178;-71
2023/03/23 00:25:08;;;;;;;13.73;6.67;;;25.60;72.80;;;;;;4988546;28;20610;-72
2023/03/23 00:27:36;;;;;;;13.30;5.90;;;25.80;71.80;;;;;;4996776;28;20193;-76
2023/03/23 00:30:03;;;;;;;13.90;6.63;;;25.80;71.80;;;;;;4988013;28;20250;-72
2023/03/23 00:32:31;;;;;;;15.07;7.17;;;25.80;72.20;;;;;;4996907;28;20646;-72
2023/03/23 00:34:59;;;;;;;12.00;5.70;;;25.80;71.60;;;;;;5006096;28;20185;-71
2023/03/23 00:37:27;;;;;;;11.77;7.10;;;25.80;71.70;;;;;;4993980;28;20201;-72
2023/03/23 00:39:57;;;;;;;21.37;11.30;;;25.70;72.10;;;;;;5005190;28;20187;-73
2023/03/23 00:42:25;;;;;;;17.17;7.70;;;25.60;72.40;;;;;;4999123;28;20270;-71
2023/03/23 00:44:59;;;;;;;13.83;6.60;;;25.60;72.90;;;;;;4998495;28;20216;-74
2023/03/23 00:47:27;;;;;;;17.50;6.50;;;25.60;73.20;;;;;;5010957;28;20181;-69
2023/03/23 00:49:56;;;;;;;16.07;6.47;;;25.60;72.60;;;;;;5003453;28;20267;-75
2023/03/23 00:52:23;;;;;;;21.77;6.80;;;25.50;73.30;;;;;;4998352;28;20277;-75
2023/03/23 00:54:51;;;;;;;15.47;6.33;;;25.40;73.30;;;;;;5011900;28;20184;-73
2023/03/23 00:57:18;;;;;;;14.57;6.33;;;25.30;73.70;;;;;;5013111;28;20552;-73
2023/03/23 00:59:46;;;;;;;12.53;5.87;;;25.30;73.20;;;;;;4994035;28;20194;-75
2023/03/23 01:02:13;;;;;;;12.47;5.63;;;25.30;73.40;;;;;;4991936;28;20925;-75
2023/03/23 01:04:44;;;;;;;10.63;5.50;;;25.30;73.50;;;;;;4996174;28;20265;-76
2023/03/23 01:07:13;;;;;;;13.03;5.63;;;25.20;72.50;;;;;;4992907;28;20192;-75
2023/03/23 01:09:44;;;;;;;11.57;5.37;;;25.20;73.20;;;;;;4996105;28;20280;-76
2023/03/23 01:12:12;;;;;;;11.30;4.93;;;25.30;73.00;;;;;;4995500;28;20186;-75
2023/03/23 01:14:39;;;;;;;9.33;4.63;;;25.20;71.50;;;;;;4996029;28;20237;-76
2023/03/23 01:17:06;;;;;;;12.90;4.57;;;25.30;71.60;;;;;;4996665;28;20174;-76
2023/03/23 01:19:35;;;;;;;13.00;4.77;;;25.30;71.10;;;;;;4995932;28;20189;-76
2023/03/23 01:22:02;;;;;;;8.57;4.70;;;25.50;70.90;;;;;;4995778;28;20194;-75
2023/03/23 01:24:31;;;;;;;11.63;5.27;;;25.60;71.10;;;;;;4991576;28;20186;-74
2023/03/23 01:27:01;;;;;;;8.90;3.87;;;25.80;70.10;;;;;;4996127;28;20178;-76
2023/03/23 01:29:29;;;;;;;10.93;4.27;;;25.90;70.30;;;;;;4995102;28;20218;-78
2023/03/23 01:31:56;;;;;;;9.20;4.73;;;26.00;69.40;;;;;;4995036;28;20198;-74
2023/03/23 01:34:24;;;;;;;13.37;4.40;;;26.00;69.40;;;;;;4996099;28;20192;-77
2023/03/23 01:36:52;;;;;;;9.33;4.20;;;26.00;68.40;;;;;;4994829;28;20204;-77
2023/03/23 01:39:20;;;;;;;7.73;3.80;;;26.00;67.90;;;;;;4998261;28;20205;-68
2023/03/23 01:41:47;;;;;;;6.57;3.90;;;25.90;68.30;;;;;;5013566;28;20269;-73
2023/03/23 01:44:17;;;;;;;7.33;3.70;;;25.80;69.00;;;;;;5009537;28;20181;-75
2023/03/23 01:46:45;;;;;;;9.37;4.20;;;25.90;69.60;;;;;;5011400;28;20196;-67
2023/03/23 01:49:19;;;;;;;6.43;4.20;;;26.00;69.40;;;;;;4997745;28;20289;-75
2023/03/23 01:51:59;;;;;;;10.87;4.13;;;26.00;68.60;;;;;;4992682;28;20656;-75
2023/03/23 01:54:28;;;;;;;6.73;3.83;;;26.00;69.20;;;;;;4993457;28;20185;-69
2023/03/23 01:57:01;;;;;;;9.53;3.63;;;26.00;69.20;;;;;;4994197;28;20178;-67
2023/03/23 01:59:30;;;;;;;9.27;4.50;;;26.00;69.60;;;;;;4988369;28;20218;-74
2023/03/23 02:02:00;;;;;;;12.30;4.00;;;26.10;69.60;;;;;;5000455;28;21714;-72
2023/03/23 02:04:29;;;;;;;6.77;3.93;;;26.10;68.50;;;;;;5014591;28;20174;-69
2023/03/23 02:06:57;;;;;;;9.23;4.60;;;26.10;69.00;;;;;;4987909;28;20190;-67
2023/03/23 02:09:28;;;;;;;5.77;4.10;;;26.10;68.60;;;;;;4988914;28;20315;-70
2023/03/23 02:11:56;;;;;;;8.37;4.17;;;25.90;68.70;;;;;;4977063;28;20766;-72
2023/03/23 02:14:26;;;;;;;6.97;4.10;;;25.90;69.10;;;;;;4987818;28;20226;-68
2023/03/23 02:17:05;;;;;;;7.67;3.97;;;25.80;69.10;;;;;;4990813;28;20180;-72
2023/03/23 02:19:44;;;;;;;9.20;4.17;;;25.90;69.30;;;;;;4992183;28;20188;-68
2023/03/23 02:23:00;;;;;;;7.87;4.17;;;25.90;69.90;;;;;;4990425;28;20558;-74
2023/03/23 02:25:54;;;;;;;10.53;4.47;;;25.80;70.00;;;;;;5004283;28;20276;-69
2023/03/23 02:28:49;;;;;;;7.93;3.90;;;25.80;69.60;;;;;;5014822;28;20209;-69
2023/03/23 02:31:31;;;;;;;8.27;4.07;;;25.80;70.20;;;;;;5009888;28;20177;-68
2023/03/23 02:34:05;;;;;;;14.27;5.00;;;25.80;70.60;;;;;;4991928;28;20182;-73
2023/03/23 02:36:43;;;;;;;7.50;4.40;;;25.80;69.60;;;;;;4986096;28;20186;-68
2023/03/23 02:39:22;;;;;;;8.60;4.03;;;25.80;69.20;;;;;;4989817;28;20203;-67
2023/03/23 02:41:55;;;;;;;7.07;4.13;;;25.90;69.00;;;;;;4993791;28;20224;-70
2023/03/23 02:44:25;;;;;;;8.43;4.10;;;26.10;69.10;;;;;;4992049;28;20557;-68
2023/03/23 02:46:53;;;;;;;8.77;4.37;;;26.30;68.80;;;;;;4986391;28;20197;-72
2023/03/23 02:49:23;;;;;;;11.07;4.60;;;26.30;68.60;;;;;;5008841;28;20221;-68
2023/03/23 02:51:52;;;;;;;11.03;4.47;;;26.30;68.40;;;;;;4998945;28;20182;-69
2023/03/23 02:54:22;;;;;;;10.43;4.80;;;26.40;68.40;;;;;;5000944;28;20177;-69
2023/03/23 02:56:51;;;;;;;7.60;4.27;;;26.40;68.00;;;;;;4998134;28;20175;-66
2023/03/23 02:59:18;;;;;;;9.30;4.63;;;26.40;68.00;;;;;;4998707;28;20260;-68
2023/03/23 03:01:56;;;;;;;12.17;4.53;;;26.40;67.50;;;;;;4993201;28;20232;-68
2023/03/23 03:04:27;;;;;;;8.90;4.80;;;26.60;67.30;;;;;;4997817;28;20644;-70
2023/03/23 03:06:54;;;;;;;8.43;4.60;;;26.80;66.30;;;;;;4990799;28;20240;-68
2023/03/23 03:10:02;;;;;;;9.07;4.33;;;27.10;65.70;;;;;;4993216;28;20284;-72
2023/03/23 03:12:35;;;;;;;8.90;4.13;;;27.20;65.80;;;;;;4911486;29;20258;-74
2023/03/23 03:15:30;;;;;;;7.90;4.50;;;27.30;64.80;;;;;;4911869;29;20254;-75
2023/03/23 03:18:12;;;;;;;10.33;4.17;;;27.40;64.60;;;;;;4972753;28;20197;-76
2023/03/23 03:20:48;;;;;;;7.93;4.57;;;28.00;64.00;;;;;;5009462;28;20185;-68
2023/03/23 03:23:17;;;;;;;7.77;4.67;;;28.40;62.20;;;;;;4998537;28;20188;-71
2023/03/23 03:25:49;;;;;;;9.47;4.17;;;28.30;61.30;;;;;;4991721;28;20181;-67
2023/03/23 03:28:22;;;;;;;7.60;3.87;;;27.90;62.50;;;;;;4990868;28;20205;-69
2023/03/23 03:30:57;;;;;;;6.53;3.60;;;27.70;62.70;;;;;;4981635;28;20186;-69
2023/03/23 03:33:25;;;;;;;4.77;2.87;;;27.10;63.30;;;;;;5004719;28;20185;-68
2023/03/23 03:35:57;;;;;;;5.33;2.90;;;26.80;65.20;;;;;;4987808;28;20544;-68
2023/03/23 03:38:26;;;;;;;5.33;3.20;;;26.60;64.60;;;;;;5013302;28;20272;-71
2023/03/23 03:40:55;;;;;;;9.97;3.87;;;26.60;65.20;;;;;;5005561;28;20193;-68
2023/03/23 03:43:22;;;;;;;9.77;4.50;;;26.70;67.00;;;;;;5005145;28;20269;-67
2023/03/23 03:45:50;;;;;;;12.20;4.90;;;26.60;68.50;;;;;;4993673;28;20288;-70
2023/03/23 03:48:17;;;;;;;14.80;5.07;;;26.50;69.50;;;;;;4998493;28;20213;-70
2023/03/23 03:50:45;;;;;;;9.47;4.70;;;26.30;70.40;;;;;;4970596;28;20551;-68
2023/03/23 03:53:12;;;;;;;11.43;5.17;;;26.20;69.90;;;;;;4992759;28;20201;-69
2023/03/23 03:55:45;;;;;;;11.33;4.60;;;25.90;70.80;;;;;;4997285;28;20612;-73
2023/03/23 03:58:12;;;;;;;11.73;4.97;;;25.80;71.00;;;;;;4995737;28;20193;-68
2023/03/23 04:00:41;;;;;;;11.63;4.83;;;25.60;71.50;;;;;;4997940;28;20707;-68
2023/03/23 04:03:08;;;;;;;12.23;5.10;;;25.40;72.00;;;;;;5008435;28;20185;-72
2023/03/23 04:05:36;;;;;;;9.83;4.90;;;25.20;72.50;;;;;;5002750;28;20181;-74
2023/03/23 04:08:04;;;;;;;11.67;4.77;;;25.40;72.80;;;;;;4985275;28;20222;-72
2023/03/23 04:10:33;;;;;;;13.77;4.47;;;25.70;72.40;;;;;;4980489;28;20905;-68
2023/03/23 04:13:00;;;;;;;10.73;4.63;;;26.30;71.20;;;;;;4993298;28;20173;-72
2023/03/23 04:15:28;;;;;;;8.40;4.20;;;26.60;70.00;;;;;;4996533;28;20739;-71
2023/03/23 04:17:56;;;;;;;13.67;4.40;;;26.40;70.50;;;;;;4992232;28;20193;-68
2023/03/23 04:20:24;;;;;;;14.03;4.67;;;26.10;72.20;;;;;;4993136;28;20640;-67
2023/03/23 04:22:54;;;;;;;8.80;4.50;;;26.00;72.70;;;;;;4997820;28;20186;-70
2023/03/23 04:25:23;;;;;;;10.80;4.50;;;25.90;72.80;;;;;;4993521;28;20185;-70
2023/03/23 04:27:54;;;;;;;14.00;5.07;;;25.80;72.20;;;;;;4991621;28;20205;-68
2023/03/23 04:30:24;;;;;;;14.30;4.03;;;25.80;71.60;;;;;;4980319;28;20193;-68
2023/03/23 04:32:54;;;;;;;10.67;3.50;;;25.70;71.40;;;;;;4990028;28;20186;-70
2023/03/23 04:35:28;;;;;;;9.83;4.03;;;25.80;71.90;;;;;;4986882;28;20181;-67
2023/03/23 04:37:56;;;;;;;6.50;3.40;;;26.40;70.10;;;;;;4979751;28;20182;-71
2023/03/23 04:40:24;;;;;;;11.20;3.83;;;27.20;68.70;;;;;;4991786;28;20675;-69
2023/03/23 04:42:57;;;;;;;12.77;4.10;;;27.90;66.30;;;;;;4984325;28;20186;-69
2023/03/23 04:45:26;;;;;;;10.20;3.50;;;28.60;65.10;;;;;;4992400;28;20181;-66
2023/03/23 04:47:57;;;;;;;10.93;3.17;;;29.00;62.00;;;;;;4991621;28;20625;-72
2023/03/23 04:50:30;;;;;;;7.57;3.08;;;29.30;60.90;;;;;;4989909;28;20193;-68
2023/03/23 04:53:04;;;;;;;9.87;3.30;;;29.00;60.50;;;;;;4988198;28;20624;-70
2023/03/23 04:55:36;;;;;;;12.87;3.03;;;28.60;61.30;;;;;;4985652;28;20193;-68
2023/03/23 04:58:07;;;;;;;7.03;3.00;;;28.00;63.00;;;;;;4989830;28;20197;-66
2023/03/23 05:00:36;;;;;;;5.80;2.60;;;27.20;65.90;;;;;;4990359;28;20182;-67
2023/03/23 05:03:03;;;;;;;6.17;2.73;;;26.80;67.60;;;;;;4989744;28;20192;-72
2023/03/23 05:05:31;;;;;;;7.77;3.20;;;26.30;69.60;;;;;;4986754;28;20185;-72
2023/03/23 05:07:59;;;;;;;9.60;3.40;;;26.20;70.30;;;;;;4992370;28;20193;-73
2023/03/23 05:10:26;;;;;;;9.40;3.90;;;26.00;70.80;;;;;;4989100;28;20194;-71
2023/03/23 05:12:54;;;;;;;10.67;3.50;;;25.80;71.70;;;;;;4983067;28;20186;-73
2023/03/23 05:15:22;;;;;;;9.77;3.40;;;25.70;71.10;;;;;;4985150;28;20600;-68
2023/03/23 05:17:52;;;;;;;5.53;3.00;;;25.60;72.10;;;;;;4989197;28;20212;-70
2023/03/23 05:20:20;;;;;;;7.93;3.10;;;25.30;72.50;;;;;;4989993;28;20187;-74
2023/03/23 05:22:49;;;;;;;9.40;3.67;;;25.20;73.40;;;;;;4987999;28;20194;-73
2023/03/23 05:25:20;;;;;;;8.87;3.13;;;25.10;74.20;;;;;;4983670;28;20641;-75
2023/03/23 05:27:52;;;;;;;5.70;3.50;;;24.90;74.60;;;;;;4992417;28;20198;-75
2023/03/23 05:30:21;;;;;;;10.43;6.13;;;24.80;75.20;;;;;;4987838;28;20617;-75
2023/03/23 05:32:51;;;;;;;8.10;3.70;;;24.80;75.50;;;;;;4989204;28;20189;-76
2023/03/23 05:35:20;;;;;;;11.07;3.47;;;24.70;75.60;;;;;;4990432;28;20186;-73
2023/03/23 05:37:47;;;;;;;11.90;4.17;;;24.60;76.20;;;;;;4988843;28;20193;-76
2023/03/23 05:40:15;;;;;;;8.70;3.13;;;24.60;76.30;;;;;;4989364;28;20656;-75
2023/03/23 05:42:45;;;;;;;8.17;3.13;;;24.60;76.30;;;;;;4989945;28;20205;-75
2023/03/23 05:45:13;;;;;;;6.63;3.37;;;24.50;76.60;;;;;;4995880;28;20268;-74
2023/03/23 05:47:41;;;;;;;6.43;2.97;;;24.40;76.90;;;;;;4994480;28;20189;-74
2023/03/23 05:50:10;;;;;;;7.80;3.00;;;24.30;77.00;;;;;;4997742;28;20216;-75
2023/03/23 05:52:37;;;;;;;6.77;2.93;;;24.30;77.30;;;;;;4992787;28;20779;-75
2023/03/23 05:55:06;;;;;;;8.57;3.77;;;24.30;77.40;;;;;;4994402;28;20189;-73
2023/03/23 05:57:33;;;;;;;11.33;3.30;;;24.20;77.40;;;;;;4997459;28;20189;-74
2023/03/23 06:00:13;;;;;;;9.50;3.17;;;24.10;77.90;;;;;;4992991;28;20190;-75
2023/03/23 06:02:43;;;;;;;8.10;2.77;;;23.90;77.60;;;;;;4992056;28;20266;-75
2023/03/23 06:05:11;;;;;;;5.67;2.30;;;23.70;78.50;;;;;;4986588;28;20193;-78
2023/03/23 06:07:40;;;;;;;6.90;2.33;;;23.50;80.00;;;;;;4988131;28;20638;-76
2023/03/23 06:10:08;;;;;;;6.97;2.33;;;23.40;80.80;;;;;;4991882;28;20218;-72
2023/03/23 06:12:38;;;;;;;5.30;2.17;;;23.20;80.60;;;;;;4987721;28;20194;-75
2023/03/23 06:15:06;;;;;;;6.37;2.50;;;22.90;81.90;;;;;;4991975;28;20232;-73
2023/03/23 06:17:36;;;;;;;5.60;2.33;;;22.80;82.20;;;;;;4986869;28;20178;-75
2023/03/23 06:20:09;;;;;;;3.87;1.97;;;22.70;83.90;;;;;;4994904;28;20177;-74
2023/03/23 06:22:39;;;;;;;6.07;2.50;;;22.50;83.70;;;;;;4988492;28;20220;-73
2023/03/23 06:25:07;;;;;;;4.53;2.80;;;22.50;84.80;;;;;;4993384;28;20196;-70
2023/03/23 06:27:35;;;;;;;8.03;3.20;;;22.50;85.50;;;;;;4994172;28;20185;-70
2023/03/23 06:30:04;;;;;;;6.30;2.77;;;22.50;85.70;;;;;;4969874;28;20228;-71
2023/03/23 06:32:33;;;;;;;6.80;3.73;;;22.50;86.00;;;;;;4992980;28;20187;-74
2023/03/23 06:35:01;;;;;;;13.23;3.87;;;22.50;86.40;;;;;;4990319;28;20189;-73
2023/03/23 06:37:28;;;;;;;8.87;3.77;;;22.50;87.10;;;;;;4991116;28;20192;-70
2023/03/23 06:39:56;;;;;;;10.80;3.87;;;22.50;87.00;;;;;;4992359;28;20182;-76
2023/03/23 06:42:24;;;;;;;12.77;3.97;;;22.30;86.80;;;;;;4988382;28;20248;-69
2023/03/23 06:44:53;;;;;;;9.73;3.53;;;22.20;87.70;;;;;;4991301;28;20182;-68
2023/03/23 06:47:20;;;;;;;9.17;4.00;;;22.30;88.20;;;;;;4968541;28;20392;-70
2023/03/23 06:49:47;;;;;;;13.70;4.10;;;22.30;88.20;;;;;;4972187;28;20225;-72
2023/03/23 06:52:15;;;;;;;11.07;4.00;;;22.20;88.20;;;;;;4971250;28;20519;-69
2023/03/23 06:54:42;;;;;;;9.53;3.63;;;22.10;88.30;;;;;;4994720;28;20676;-70
2023/03/23 06:57:10;;;;;;;8.50;3.67;;;22.10;88.70;;;;;;5002071;28;20196;-68
2023/03/23 06:59:37;;;;;;;13.33;4.87;;;22.20;89.20;;;;;;5017153;28;20233;-73
2023/03/23 07:02:04;;;;;;;8.83;4.40;;;22.20;89.20;;;;;;4996368;28;20537;-75
2023/03/23 07:04:32;;;;;;;10.80;3.83;;;22.10;89.60;;;;;;4990951;28;20257;-68
2023/03/23 07:06:59;;;;;;;7.53;3.57;;;22.10;89.70;;;;;;5000207;28;20194;-68
2023/03/23 07:09:26;;;;;;;13.93;6.93;;;22.00;89.80;;;;;;4999654;28;20218;-69
2023/03/23 07:11:54;;;;;;;11.40;4.63;;;22.00;90.10;;;;;;4998586;28;20174;-67
2023/03/23 07:14:22;;;;;;;9.10;4.40;;;21.90;90.10;;;;;;4991498;28;20221;-66
2023/03/23 07:16:49;;;;;;;11.70;4.03;;;21.90;90.60;;;;;;4993182;28;20536;-66
2023/03/23 07:19:17;;;;;;;10.10;3.97;;;21.80;90.70;;;;;;5000206;28;20600;-67
2023/03/23 07:21:44;;;;;;;8.50;3.50;;;21.60;90.80;;;;;;4994081;28;20174;-67
2023/03/23 07:24:15;;;;;;;8.33;3.67;;;21.60;91.10;;;;;;4992114;28;20552;-68
2023/03/23 07:26:42;;;;;;;9.27;3.93;;;21.50;91.20;;;;;;4997220;28;20189;-71
2023/03/23 07:29:10;;;;;;;11.20;4.53;;;21.50;91.10;;;;;;5008185;28;20228;-69
2023/03/23 07:31:37;;;;;;;7.40;3.83;;;21.50;91.60;;;;;;4991608;28;20190;-68
2023/03/23 07:34:06;;;;;;;9.80;4.33;;;21.50;91.50;;;;;;4993115;28;20201;-68
2023/03/23 07:36:37;;;;;;;11.23;4.03;;;21.40;91.60;;;;;;4998069;28;20276;-69
2023/03/23 07:39:08;;;;;;;8.97;4.00;;;21.40;91.80;;;;;;4992867;28;20186;-67
2023/03/23 07:41:35;;;;;;;9.50;3.53;;;21.30;91.60;;;;;;5013291;28;20240;-69
2023/03/23 07:44:02;;;;;;;7.47;3.47;;;21.30;91.70;;;;;;4987762;28;20186;-69
2023/03/23 07:46:30;;;;;;;11.33;3.73;;;21.20;91.60;;;;;;5006705;28;20542;-67
2023/03/23 07:48:58;;;;;;;12.10;3.70;;;21.10;91.80;;;;;;5002198;28;20224;-68
2023/03/23 07:51:25;;;;;;;10.50;4.00;;;21.00;91.70;;;;;;5005970;28;21008;-67
2023/03/23 07:53:52;;;;;;;13.77;4.13;;;21.00;91.70;;;;;;5012781;28;20192;-68
2023/03/23 07:56:20;;;;;;;10.67;3.60;;;21.00;92.00;;;;;;4995732;28;20189;-66
2023/03/23 07:58:48;;;;;;;11.37;3.70;;;20.90;91.90;;;;;;5007265;28;20189;-68
2023/03/23 08:01:16;;;;;;;12.13;4.47;;;21.00;92.10;;;;;;5005422;28;20268;-65
2023/03/23 08:03:44;;;;;;;8.63;3.63;;;20.90;92.20;;;;;;4997847;28;20228;-68
2023/03/23 08:06:11;;;;;;;8.23;3.70;;;20.90;92.20;;;;;;4996984;28;20652;-67
2023/03/23 08:08:40;;;;;;;9.00;3.93;;;20.90;92.30;;;;;;5013148;28;20244;-68
2023/03/23 08:11:08;;;;;;;10.67;4.00;;;21.00;92.40;;;;;;5013418;28;20677;-74
2023/03/23 08:13:35;;;;;;;19.23;13.50;;;20.90;92.30;;;;;;4994299;28;20213;-66
2023/03/23 08:16:03;;;;;;;17.70;14.43;;;20.80;92.20;;;;;;4995286;28;20209;-68
2023/03/23 08:18:31;;;;;;;11.63;7.17;;;20.80;92.30;;;;;;4994329;28;20190;-70
2023/03/23 08:20:59;;;;;;;10.23;4.10;;;20.90;92.60;;;;;;5004191;28;20186;-67
2023/03/23 08:23:26;;;;;;;11.53;4.23;;;20.90;92.50;;;;;;4993378;28;20349;-67
2023/03/23 08:25:54;;;;;;;8.60;4.20;;;20.90;92.60;;;;;;4991928;28;20272;-68
2023/03/23 08:28:22;;;;;;;9.43;3.97;;;20.90;92.60;;;;;;4993262;28;20216;-74
2023/03/23 08:30:49;;;;;;;12.40;4.33;;;20.90;92.60;;;;;;4989236;28;20194;-67
2023/03/23 08:33:17;;;;;;;7.57;3.70;;;20.90;92.50;;;;;;4990220;28;20239;-69
2023/03/23 08:35:45;;;;;;;8.77;4.00;;;20.80;92.40;;;;;;4989183;28;20185;-68
2023/03/23 08:38:13;;;;;;;10.50;4.60;;;20.80;92.40;;;;;;4987804;28;20396;-67
2023/03/23 08:40:40;;;;;;;7.43;5.10;;;20.80;92.50;;;;;;4989793;28;20723;-65
2023/03/23 08:43:08;;;;;;;12.30;5.23;;;20.80;92.50;;;;;;4989119;28;20194;-69
2023/03/23 08:45:36;;;;;;;9.80;4.93;;;20.80;92.70;;;;;;4992292;28;20170;-68
2023/03/23 08:48:03;;;;;;;12.83;7.10;;;20.80;92.70;;;;;;4985845;28;20744;-66
2023/03/23 08:50:31;;;;;;;10.63;5.70;;;20.80;92.70;;;;;;4970532;28;20194;-69
2023/03/23 08:52:58;;;;;;;12.03;5.00;;;20.80;92.70;;;;;;4990058;28;20648;-76
2023/03/23 08:55:26;;;;;;;10.73;4.90;;;20.80;92.80;;;;;;4990170;28;20178;-67
2023/03/23 08:57:53;;;;;;;10.27;4.73;;;20.80;92.70;;;;;;4972988;28;20213;-67
2023/03/23 09:00:24;;;;;;;8.03;4.13;;;20.80;92.60;;;;;;4990807;28;20186;-68
2023/03/23 09:02:53;;;;;;;8.53;4.47;;;20.80;92.70;;;;;;4990282;28;20462;-66
2023/03/23 09:05:26;;;;;;;6.33;4.33;;;20.80;92.70;;;;;;4988000;28;20747;-70
2023/03/23 09:07:58;;;;;;;5.37;4.00;;;20.80;92.70;;;;;;4992019;28;20198;-67
2023/03/23 09:10:29;;;;;;;4.70;4.20;;;20.80;92.70;;;;;;4992277;28;20309;-67
2023/03/23 09:13:01;;;;;;;15.23;11.87;;;20.70;92.40;;;;;;4991639;28;20190;-65
2023/03/23 09:15:28;;;;;;;6.57;4.57;;;20.70;92.50;;;;;;4990833;28;20270;-69
2023/03/23 09:17:57;;;;;;;8.20;3.33;;;20.70;92.50;;;;;;4991335;28;20269;-71
2023/03/23 09:20:27;;;;;;;4.57;3.00;;;20.60;92.20;;;;;;4995684;28;20190;-65
2023/03/23 09:22:56;;;;;;;5.67;3.10;;;20.60;92.30;;;;;;4992218;28;20248;-68
2023/03/23 09:25:26;;;;;;;3.53;2.87;;;20.60;92.40;;;;;;4992323;28;20192;-67
2023/03/23 09:27:57;;;;;;;6.17;3.20;;;20.60;92.40;;;;;;4993609;28;20724;-66
2023/03/23 09:30:30;;;;;;;5.77;3.50;;;20.60;92.30;;;;;;4995852;28;20301;-72
2023/03/23 09:33:00;;;;;;;14.73;12.17;;;20.60;92.20;;;;;;4996524;28;20177;-73
2023/03/23 09:35:31;;;;;;;11.10;9.07;;;20.60;92.20;;;;;;4995464;28;20178;-68
2023/03/23 09:38:01;;;;;;;6.50;4.60;;;20.60;92.20;;;;;;4995675;28;20228;-76
2023/03/23 09:40:48;;;;;;;5.83;3.50;;;20.40;91.70;;;;;;4996400;28;20178;-73
2023/03/23 09:43:52;;;;;;;3.73;2.50;;;20.40;91.60;;;;;;4992626;28;20192;-70
2023/03/23 09:46:26;;;;;;;4.80;2.67;;;20.30;91.40;;;;;;4993665;28;20201;-66
2023/03/23 09:49:17;;;;;;;3.83;2.30;;;20.30;91.30;;;;;;4995903;28;20236;-76
2023/03/23 09:51:58;;;;;;;2.50;2.20;;;20.30;91.30;;;;;;4995369;28;20189;-73
2023/03/23 09:54:38;;;;;;;3.37;2.40;;;20.30;91.30;;;;;;4995329;28;20249;-71
2023/03/23 09:57:22;;;;;;;4.90;2.60;;;20.30;91.10;;;;;;4995235;28;20178;-66
2023/03/23 10:00:22;;;;;;;2.87;2.13;;;20.30;90.90;;;;;;4994210;28;20205;-66
2023/03/23 10:02:50;;;;;;;5.43;2.30;;;20.40;90.90;;;;;;4969407;28;20197;-65
2023/03/23 10:05:35;;;;;;;4.33;2.60;;;20.40;91.10;;;;;;4994842;28;20200;-64
2023/03/23 10:08:18;;;;;;;3.20;2.40;;;20.40;90.90;;;;;;4989289;28;20252;-66
2023/03/23 10:11:03;;;;;;;4.20;2.80;;;20.40;90.80;;;;;;4979271;28;20274;-65
2023/03/23 10:13:52;;;;;;;3.80;2.80;;;20.50;91.00;;;;;;4984000;28;20225;-64
2023/03/23 10:16:23;;;;;;;7.87;3.13;;;20.40;90.90;;;;;;4994799;28;20211;-64
2023/03/23 10:19:00;;;;;;;4.83;2.90;;;20.40;91.00;;;;;;5000259;28;20189;-69
2023/03/23 10:21:31;;;;;;;2.90;2.67;;;20.40;91.20;;;;;;4995536;28;20279;-64
2023/03/23 10:24:04;;;;;;;6.03;2.70;;;20.40;91.30;;;;;;5007755;28;20177;-64
2023/03/23 10:26:40;;;;;;;3.30;3.00;;;20.30;91.30;;;;;;4994392;28;20190;-70
2023/03/23 10:29:11;;;;;;;2.90;2.60;;;20.40;91.50;;;;;;4996905;28;20206;-70
2023/03/23 10:31:52;;;;;;;4.00;3.20;;;20.30;91.40;;;;;;4992177;28;20186;-66
2023/03/23 10:34:44;;;;;;;4.50;3.30;;;20.30;91.50;;;;;;5014974;28;20192;-65
2023/03/23 10:37:46;;;;;;;3.93;3.00;;;20.30;91.70;;;;;;5001508;28;20182;-73
2023/03/23 10:40:19;;;;;;;6.73;3.43;;;20.30;91.70;;;;;;4995234;28;20185;-79
2023/03/23 10:42:47;;;;;;;4.17;3.00;;;20.30;91.80;;;;;;5015632;28;20185;-79
2023/03/23 10:45:22;;;;;;;4.57;3.37;;;20.30;91.90;;;;;;5003550;28;20217;-78
2023/03/23 10:48:02;;;;;;;4.00;3.63;;;20.20;91.90;;;;;;5018914;28;20178;-77
2023/03/23 10:50:36;;;;;;;6.63;3.47;;;20.20;91.90;;;;;;5007642;28;20236;-79
2023/03/23 10:53:37;;;;;;;4.17;3.40;;;20.10;91.90;;;;;;5000588;28;20191;-79
2023/03/23 10:56:05;;;;;;;3.97;3.60;;;20.20;92.00;;;;;;4989202;28;20245;-79
2023/03/23 10:58:35;;;;;;;4.00;3.70;;;20.20;92.10;;;;;;5015991;28;20190;-77
2023/03/23 11:01:05;;;;;;;4.57;3.37;;;20.10;92.10;;;;;;5015659;28;20193;-74
2023/03/23 11:03:51;;;;;;;3.80;3.50;;;20.00;92.00;;;;;;5014712;28;20181;-77
2023/03/23 11:06:30;;;;;;;4.20;3.80;;;20.00;92.20;;;;;;4996139;28;20231;-77
2023/03/23 11:09:19;;;;;;;4.43;4.03;;;20.10;92.20;;;;;;5008485;28;20666;-76
2023/03/23 11:11:57;;;;;;;4.43;4.03;;;20.10;92.40;;;;;;5006998;28;20547;-79
2023/03/23 11:14:29;;;;;;;4.73;4.40;;;20.10;92.40;;;;;;5001732;28;20229;-77
2023/03/23 11:17:00;;;;;;;6.40;4.20;;;20.10;92.50;;;;;;5003660;28;20186;-77
2023/03/23 11:19:31;;;;;;;5.20;4.70;;;20.10;92.50;;;;;;4975235;28;20189;-79
2023/03/23 11:22:27;;;;;;;4.57;4.17;;;20.10;92.50;;;;;;4989004;28;20559;-79
2023/03/23 11:24:59;;;;;;;4.87;4.47;;;20.10;92.60;;;;;;4994468;28;20182;-79
2023/03/23 11:27:28;;;;;;;4.87;4.50;;;20.00;92.50;;;;;;4995590;28;20520;-79
2023/03/23 11:30:08;;;;;;;5.43;5.00;;;20.00;92.50;;;;;;5007023;28;20564;-78
2023/03/23 11:32:37;;;;;;;6.97;4.87;;;19.90;92.50;;;;;;5005225;28;20173;-77
2023/03/23 11:35:18;;;;;;;5.20;4.70;;;19.90;92.60;;;;;;4991499;28;20190;-79
2023/03/23 11:38:07;;;;;;;5.53;5.00;;;20.00;92.70;;;;;;4999164;28;20272;-79
2023/03/23 11:40:47;;;;;;;6.50;5.90;;;20.00;92.90;;;;;;4989394;28;20228;-77
2023/03/23 11:43:19;;;;;;;6.60;5.90;;;19.90;92.70;;;;;;4996856;28;20238;-64
2023/03/23 11:46:17;;;;;;;5.93;5.40;;;19.90;92.70;;;;;;4994339;28;20186;-72
2023/03/23 11:49:04;;;;;;;6.57;5.90;;;19.90;92.80;;;;;;4990454;28;20624;-70
2023/03/23 11:51:43;;;;;;;9.03;6.00;;;19.80;92.80;;;;;;5009684;28;20189;-64
2023/03/23 11:54:31;;;;;;;6.60;6.00;;;19.90;92.90;;;;;;5006219;28;20190;-64
2023/03/23 11:56:59;;;;;;;6.90;6.30;;;19.80;92.90;;;;;;4998876;28;20190;-72
2023/03/23 11:59:33;;;;;;;7.37;6.67;;;19.80;92.90;;;;;;4983718;28;20182;-71
2023/03/23 12:02:37;;;;;;;8.17;7.20;;;19.90;93.00;;;;;;4995304;28;20186;-76
2023/03/23 12:05:28;;;;;;;7.93;7.13;;;19.90;93.00;;;;;;4991941;28;20180;-63
2023/03/23 12:08:31;;;;;;;9.87;8.70;;;19.80;93.00;;;;;;4985930;28;20178;-77
2023/03/23 12:11:20;;;;;;;8.87;8.07;;;19.80;93.10;;;;;;4992712;28;20193;-72
2023/03/23 12:14:00;;;;;;;10.63;9.90;;;19.90;93.10;;;;;;4993524;28;20464;-76
2023/03/23 12:16:59;;;;;;;11.33;10.40;;;19.80;93.10;;;;;;4994081;28;20241;-67
2023/03/23 12:19:38;;;;;;;10.80;9.67;;;19.80;93.10;;;;;;4993638;28;20237;-64
2023/03/23 12:22:11;;;;;;;11.00;9.70;;;19.80;93.20;;;;;;4992060;28;21935;-65
2023/03/23 12:25:11;;;;;;;13.13;11.53;;;19.80;93.20;;;;;;4991482;28;20546;-68
2023/03/23 12:27:56;;;;;;;13.03;11.73;;;19.80;93.20;;;;;;4947576;28;20545;-66
2023/03/23 12:30:38;;;;;;;13.07;11.77;;;19.80;93.20;;;;;;4991991;28;20221;-66
2023/03/23 12:33:19;;;;;;;13.73;12.27;;;19.80;93.20;;;;;;4993690;28;20177;-68
2023/03/23 12:36:29;;;;;;;14.57;13.37;;;19.70;93.20;;;;;;4989861;28;20261;-69
2023/03/23 12:39:13;;;;;;;13.93;12.70;;;19.70;93.30;;;;;;4981109;28;20675;-64
2023/03/23 12:41:54;;;;;;;13.57;11.97;;;19.70;93.30;;;;;;4993025;28;20193;-64
2023/03/23 12:44:36;;;;;;;13.77;11.83;;;19.70;93.40;;;;;;4992914;28;20236;-66
2023/03/23 12:47:22;;;;;;;13.00;11.87;;;19.70;93.40;;;;;;4991816;28;20270;-63
2023/03/23 12:50:00;;;;;;;13.33;12.23;;;19.70;93.40;;;;;;4990839;28;20221;-65
2023/03/23 12:52:34;;;;;;;13.73;12.30;;;19.70;93.50;;;;;;4991462;28;20276;-65
2023/03/23 12:55:28;;;;;;;14.83;13.23;;;19.70;93.50;;;;;;4995995;28;20236;-65
2023/03/23 12:58:08;;;;;;;14.63;13.17;;;19.70;93.50;;;;;;4994784;28;20186;-68
2023/03/23 13:00:55;;;;;;;13.87;12.53;;;19.70;93.50;;;;;;4988534;28;20269;-65
2023/03/23 13:03:33;;;;;;;14.40;13.10;;;19.70;93.60;;;;;;4984895;28;20189;-66
2023/03/23 13:06:14;;;;;;;14.77;13.47;;;19.60;93.60;;;;;;4998291;28;20185;-66
2023/03/23 13:09:10;;;;;;;15.67;14.00;;;19.60;93.60;;;;;;4997076;28;20211;-64
2023/03/23 13:11:41;;;;;;;14.60;13.23;;;19.60;93.60;;;;;;4996743;28;20237;-67